sensor_id;sensor_type;location;lat;lon;timestamp;P1;durP1;ratioP1;P2;durP2;ratioP2
2618;SDS011;1319;52.346;13.096;2023-03-03T00:01:47;21.50;;;10.23;;
2618;SDS011;1319;52.346;13.096;2023-03-03T00:04:12;34.73;;;11.93;;
2618;SDS011;1319;52.346;13.096;2023-03-03T00:06:37;23.17;;;9.93;;
2618;SDS011;1319;52.346;13.096;2023-03-03T00:09:03;28.27;;;11.53;;
2618;SDS011;1319;52.346;13.096;2023-03-03T00:11:28;27.33;;;11.27;;
2618;SDS011;1319;52.346;13.096;2023-03-03T00:13:54;29.90;;;10.70;;
2618;SDS011;1319;52.346;13.096;2023-03-03T00:16:21;32.87;;;11.27;;
2618;SDS011;1319;52.346;13.096;2023-03-03T00:18:47;32.53;;;11.17;;
2618;SDS011;1319;52.346;13.096;2023-03-03T00:21:39;28.70;;;11.33;;
2618;SDS011;1319;52.346;13.096;2023-03-03T00:26:30;27.40;;;11.77;;
2618;SDS011;1319;52.346;13.096;2023-03-03T00:28:58;28.70;;;12.07;;
2618;SDS011;1319;52.346;13.096;2023-03-03T00:31:28;26.40;;;11.20;;
2618;SDS011;1319;52.346;13.096;2023-03-03T00:33:56;28.73;;;11.63;;
2618;SDS011;1319;52.346;13.096;2023-03-03T00:38:47;32.83;;;12.73;;
2618;SDS011;1319;52.346;13.096;2023-03-03T00:41:19;30.63;;;11.73;;
2618;SDS011;1319;52.346;13.096;2023-03-03T00:43:46;29.60;;;11.93;;
2618;SDS011;1319;52.346;13.096;2023-03-03T00:46:14;37.80;;;14.23;;
2618;SDS011;1319;52.346;13.096;2023-03-03T00:48:41;33.93;;;12.73;;
2618;SDS011;1319;52.346;13.096;2023-03-03T00:53:47;29.97;;;12.60;;
2618;SDS011;1319;52.346;13.096;2023-03-03T00:56:12;30.87;;;12.37;;
2618;SDS011;1319;52.346;13.096;2023-03-03T00:58:37;34.77;;;13.50;;
2618;SDS011;1319;52.346;13.096;2023-03-03T01:01:03;31.23;;;13.37;;
2618;SDS011;1319;52.346;13.096;2023-03-03T01:03:28;29.97;;;11.97;;
2618;SDS011;1319;52.346;13.096;2023-03-03T01:05:53;37.07;;;14.97;;
2618;SDS011;1319;52.346;13.096;2023-03-03T01:08:19;34.87;;;14.23;;
2618;SDS011;1319;52.346;13.096;2023-03-03T01:10:49;33.90;;;13.63;;
2618;SDS011;1319;52.346;13.096;2023-03-03T01:13:25;32.10;;;13.60;;
2618;SDS011;1319;52.346;13.096;2023-03-03T01:15:51;31.70;;;13.60;;
2618;SDS011;1319;52.346;13.096;2023-03-03T01:18:16;33.17;;;13.07;;
2618;SDS011;1319;52.346;13.096;2023-03-03T01:20:41;37.30;;;13.80;;
2618;SDS011;1319;52.346;13.096;2023-03-03T01:23:07;32.23;;;13.33;;
2618;SDS011;1319;52.346;13.096;2023-03-03T01:25:32;35.83;;;13.67;;
2618;SDS011;1319;52.346;13.096;2023-03-03T01:27:57;33.60;;;13.37;;
2618;SDS011;1319;52.346;13.096;2023-03-03T01:30:23;34.03;;;13.73;;
2618;SDS011;1319;52.346;13.096;2023-03-03T01:32:48;34.43;;;13.83;;
2618;SDS011;1319;52.346;13.096;2023-03-03T01:35:14;34.50;;;13.77;;
2618;SDS011;1319;52.346;13.096;2023-03-03T01:37:39;35.07;;;14.10;;
2618;SDS011;1319;52.346;13.096;2023-03-03T01:40:05;34.87;;;14.07;;
2618;SDS011;1319;52.346;13.096;2023-03-03T01:42:32;35.33;;;14.10;;
2618;SDS011;1319;52.346;13.096;2023-03-03T01:47:38;37.43;;;14.93;;
2618;SDS011;1319;52.346;13.096;2023-03-03T01:50:05;38.70;;;14.90;;
2618;SDS011;1319;52.346;13.096;2023-03-03T01:52:35;39.27;;;14.80;;
2618;SDS011;1319;52.346;13.096;2023-03-03T01:55:03;35.27;;;15.03;;
2618;SDS011;1319;52.346;13.096;2023-03-03T01:57:31;36.13;;;14.63;;
2618;SDS011;1319;52.346;13.096;2023-03-03T01:59:57;37.30;;;15.70;;
2618;SDS011;1319;52.346;13.096;2023-03-03T02:02:24;36.07;;;15.80;;
2618;SDS011;1319;52.346;13.096;2023-03-03T02:04:51;37.13;;;14.50;;
2618;SDS011;1319;52.346;13.096;2023-03-03T02:07:16;37.53;;;14.90;;
2618;SDS011;1319;52.346;13.096;2023-03-03T02:10:04;33.60;;;14.60;;
2618;SDS011;1319;52.346;13.096;2023-03-03T02:15:00;33.33;;;14.93;;
2618;SDS011;1319;52.346;13.096;2023-03-03T02:17:26;35.13;;;14.63;;
2618;SDS011;1319;52.346;13.096;2023-03-03T02:19:53;34.17;;;14.80;;
2618;SDS011;1319;52.346;13.096;2023-03-03T02:22:23;35.20;;;14.60;;
2618;SDS011;1319;52.346;13.096;2023-03-03T02:24:52;32.83;;;14.53;;
2618;SDS011;1319;52.346;13.096;2023-03-03T02:27:21;29.13;;;12.80;;
2618;SDS011;1319;52.346;13.096;2023-03-03T02:29:46;35.13;;;14.47;;
2618;SDS011;1319;52.346;13.096;2023-03-03T02:32:11;32.27;;;13.90;;
2618;SDS011;1319;52.346;13.096;2023-03-03T02:34:45;30.60;;;13.07;;
2618;SDS011;1319;52.346;13.096;2023-03-03T02:37:11;28.23;;;12.27;;
2618;SDS011;1319;52.346;13.096;2023-03-03T02:39:36;30.80;;;13.57;;
2618;SDS011;1319;52.346;13.096;2023-03-03T02:42:15;28.93;;;13.50;;
2618;SDS011;1319;52.346;13.096;2023-03-03T02:44:44;31.50;;;12.97;;
2618;SDS011;1319;52.346;13.096;2023-03-03T02:47:09;28.30;;;13.37;;
2618;SDS011;1319;52.346;13.096;2023-03-03T02:49:35;32.37;;;13.43;;
2618;SDS011;1319;52.346;13.096;2023-03-03T02:52:01;32.10;;;13.90;;
2618;SDS011;1319;52.346;13.096;2023-03-03T02:54:26;32.90;;;13.90;;
2618;SDS011;1319;52.346;13.096;2023-03-03T02:56:52;35.03;;;13.83;;
2618;SDS011;1319;52.346;13.096;2023-03-03T02:59:17;31.40;;;14.30;;
2618;SDS011;1319;52.346;13.096;2023-03-03T03:01:43;30.33;;;13.80;;
2618;SDS011;1319;52.346;13.096;2023-03-03T03:04:10;32.00;;;14.17;;
2618;SDS011;1319;52.346;13.096;2023-03-03T03:06:35;32.70;;;14.43;;
2618;SDS011;1319;52.346;13.096;2023-03-03T03:09:01;29.03;;;13.60;;
2618;SDS011;1319;52.346;13.096;2023-03-03T03:11:27;30.47;;;13.40;;
2618;SDS011;1319;52.346;13.096;2023-03-03T03:13:52;30.87;;;13.33;;
2618;SDS011;1319;52.346;13.096;2023-03-03T03:16:18;36.00;;;14.60;;
2618;SDS011;1319;52.346;13.096;2023-03-03T03:18:43;34.30;;;14.03;;
2618;SDS011;1319;52.346;13.096;2023-03-03T03:21:09;35.60;;;13.73;;
2618;SDS011;1319;52.346;13.096;2023-03-03T03:23:35;36.60;;;15.00;;
2618;SDS011;1319;52.346;13.096;2023-03-03T03:26:00;32.87;;;14.60;;
2618;SDS011;1319;52.346;13.096;2023-03-03T03:28:26;34.43;;;14.37;;
2618;SDS011;1319;52.346;13.096;2023-03-03T03:30:51;29.53;;;13.33;;
2618;SDS011;1319;52.346;13.096;2023-03-03T03:33:16;35.07;;;14.37;;
2618;SDS011;1319;52.346;13.096;2023-03-03T03:35:41;37.03;;;15.23;;
2618;SDS011;1319;52.346;13.096;2023-03-03T03:38:09;35.90;;;15.30;;
2618;SDS011;1319;52.346;13.096;2023-03-03T03:40:35;32.43;;;14.43;;
2618;SDS011;1319;52.346;13.096;2023-03-03T03:43:00;35.70;;;14.63;;
2618;SDS011;1319;52.346;13.096;2023-03-03T03:45:25;36.30;;;15.57;;
2618;SDS011;1319;52.346;13.096;2023-03-03T03:47:50;37.80;;;16.13;;
2618;SDS011;1319;52.346;13.096;2023-03-03T03:50:15;36.47;;;15.20;;
2618;SDS011;1319;52.346;13.096;2023-03-03T03:52:41;42.07;;;14.80;;
2618;SDS011;1319;52.346;13.096;2023-03-03T03:55:07;40.83;;;15.87;;
2618;SDS011;1319;52.346;13.096;2023-03-03T03:57:32;41.10;;;15.40;;
2618;SDS011;1319;52.346;13.096;2023-03-03T03:59:58;37.43;;;14.67;;
2618;SDS011;1319;52.346;13.096;2023-03-03T04:02:26;35.77;;;15.10;;
2618;SDS011;1319;52.346;13.096;2023-03-03T04:04:52;40.53;;;16.37;;
2618;SDS011;1319;52.346;13.096;2023-03-03T04:07:17;39.50;;;15.80;;
2618;SDS011;1319;52.346;13.096;2023-03-03T04:09:42;37.60;;;15.60;;
2618;SDS011;1319;52.346;13.096;2023-03-03T04:12:07;41.73;;;15.97;;
2618;SDS011;1319;52.346;13.096;2023-03-03T04:14:32;41.13;;;15.13;;
2618;SDS011;1319;52.346;13.096;2023-03-03T04:16:58;38.33;;;14.80;;
2618;SDS011;1319;52.346;13.096;2023-03-03T04:19:23;39.73;;;16.00;;
2618;SDS011;1319;52.346;13.096;2023-03-03T04:21:48;42.33;;;15.83;;
2618;SDS011;1319;52.346;13.096;2023-03-03T04:24:13;41.10;;;15.63;;
2618;SDS011;1319;52.346;13.096;2023-03-03T04:26:39;46.53;;;16.03;;
2618;SDS011;1319;52.346;13.096;2023-03-03T04:29:04;42.53;;;16.50;;
2618;SDS011;1319;52.346;13.096;2023-03-03T04:31:29;38.83;;;15.60;;
2618;SDS011;1319;52.346;13.096;2023-03-03T04:33:55;50.53;;;16.27;;
2618;SDS011;1319;52.346;13.096;2023-03-03T04:36:20;42.57;;;16.73;;
2618;SDS011;1319;52.346;13.096;2023-03-03T04:38:46;50.97;;;16.00;;
2618;SDS011;1319;52.346;13.096;2023-03-03T04:41:11;39.43;;;15.40;;
2618;SDS011;1319;52.346;13.096;2023-03-03T04:43:36;45.30;;;17.03;;
2618;SDS011;1319;52.346;13.096;2023-03-03T04:46:01;44.80;;;15.40;;
2618;SDS011;1319;52.346;13.096;2023-03-03T04:48:27;43.07;;;16.07;;
2618;SDS011;1319;52.346;13.096;2023-03-03T04:50:52;45.47;;;16.37;;
2618;SDS011;1319;52.346;13.096;2023-03-03T04:53:17;44.00;;;16.10;;
2618;SDS011;1319;52.346;13.096;2023-03-03T04:55:42;44.67;;;15.57;;
2618;SDS011;1319;52.346;13.096;2023-03-03T04:58:07;45.57;;;16.20;;
2618;SDS011;1319;52.346;13.096;2023-03-03T05:00:34;41.07;;;15.03;;
2618;SDS011;1319;52.346;13.096;2023-03-03T05:02:59;41.53;;;14.87;;
2618;SDS011;1319;52.346;13.096;2023-03-03T05:05:24;39.13;;;14.87;;
2618;SDS011;1319;52.346;13.096;2023-03-03T05:07:50;45.80;;;15.97;;
2618;SDS011;1319;52.346;13.096;2023-03-03T05:10:15;48.93;;;17.27;;
2618;SDS011;1319;52.346;13.096;2023-03-03T05:12:40;44.77;;;16.83;;
2618;SDS011;1319;52.346;13.096;2023-03-03T05:15:06;43.57;;;16.20;;
2618;SDS011;1319;52.346;13.096;2023-03-03T05:17:31;45.17;;;16.03;;
2618;SDS011;1319;52.346;13.096;2023-03-03T05:19:56;41.23;;;16.23;;
2618;SDS011;1319;52.346;13.096;2023-03-03T05:22:22;39.80;;;16.10;;
2618;SDS011;1319;52.346;13.096;2023-03-03T05:24:47;38.33;;;14.93;;
2618;SDS011;1319;52.346;13.096;2023-03-03T05:27:13;37.23;;;14.50;;
2618;SDS011;1319;52.346;13.096;2023-03-03T05:29:38;47.37;;;15.73;;
2618;SDS011;1319;52.346;13.096;2023-03-03T05:32:04;41.03;;;16.00;;
2618;SDS011;1319;52.346;13.096;2023-03-03T05:34:29;42.13;;;15.37;;
2618;SDS011;1319;52.346;13.096;2023-03-03T05:36:54;39.83;;;16.40;;
2618;SDS011;1319;52.346;13.096;2023-03-03T05:39:19;42.37;;;15.77;;
2618;SDS011;1319;52.346;13.096;2023-03-03T05:41:45;45.03;;;16.23;;
2618;SDS011;1319;52.346;13.096;2023-03-03T05:44:10;39.43;;;15.30;;
2618;SDS011;1319;52.346;13.096;2023-03-03T05:46:35;39.80;;;14.87;;
2618;SDS011;1319;52.346;13.096;2023-03-03T05:49:00;43.13;;;16.30;;
2618;SDS011;1319;52.346;13.096;2023-03-03T05:51:26;45.57;;;17.17;;
2618;SDS011;1319;52.346;13.096;2023-03-03T05:53:51;45.40;;;16.87;;
2618;SDS011;1319;52.346;13.096;2023-03-03T05:56:16;48.03;;;16.27;;
2618;SDS011;1319;52.346;13.096;2023-03-03T05:58:41;45.80;;;16.13;;
2618;SDS011;1319;52.346;13.096;2023-03-03T06:01:06;48.70;;;17.77;;
2618;SDS011;1319;52.346;13.096;2023-03-03T06:03:32;48.03;;;16.70;;
2618;SDS011;1319;52.346;13.096;2023-03-03T06:05:57;45.77;;;16.63;;
2618;SDS011;1319;52.346;13.096;2023-03-03T06:08:22;53.90;;;17.43;;
2618;SDS011;1319;52.346;13.096;2023-03-03T06:10:47;45.00;;;16.50;;
2618;SDS011;1319;52.346;13.096;2023-03-03T06:13:13;49.07;;;17.00;;
2618;SDS011;1319;52.346;13.096;2023-03-03T06:15:38;49.50;;;17.83;;
2618;SDS011;1319;52.346;13.096;2023-03-03T06:18:03;51.77;;;17.90;;
2618;SDS011;1319;52.346;13.096;2023-03-03T06:20:29;53.97;;;19.00;;
2618;SDS011;1319;52.346;13.096;2023-03-03T06:22:54;42.67;;;16.03;;
2618;SDS011;1319;52.346;13.096;2023-03-03T06:25:19;45.90;;;16.23;;
2618;SDS011;1319;52.346;13.096;2023-03-03T06:27:45;40.47;;;15.23;;
2618;SDS011;1319;52.346;13.096;2023-03-03T06:30:10;41.77;;;15.40;;
2618;SDS011;1319;52.346;13.096;2023-03-03T06:32:36;36.10;;;13.73;;
2618;SDS011;1319;52.346;13.096;2023-03-03T06:35:02;34.87;;;13.97;;
2618;SDS011;1319;52.346;13.096;2023-03-03T06:37:27;33.50;;;13.33;;
2618;SDS011;1319;52.346;13.096;2023-03-03T06:39:52;35.20;;;13.87;;
2618;SDS011;1319;52.346;13.096;2023-03-03T06:42:18;38.93;;;14.13;;
2618;SDS011;1319;52.346;13.096;2023-03-03T06:44:43;36.63;;;13.57;;
2618;SDS011;1319;52.346;13.096;2023-03-03T06:47:09;34.07;;;13.13;;
2618;SDS011;1319;52.346;13.096;2023-03-03T06:49:34;36.97;;;13.03;;
2618;SDS011;1319;52.346;13.096;2023-03-03T06:52:00;36.00;;;13.53;;
2618;SDS011;1319;52.346;13.096;2023-03-03T06:54:27;36.40;;;14.17;;
2618;SDS011;1319;52.346;13.096;2023-03-03T06:56:53;31.47;;;12.47;;
2618;SDS011;1319;52.346;13.096;2023-03-03T06:59:21;29.87;;;11.87;;
2618;SDS011;1319;52.346;13.096;2023-03-03T07:01:49;32.97;;;13.00;;
2618;SDS011;1319;52.346;13.096;2023-03-03T07:06:49;36.30;;;13.30;;
2618;SDS011;1319;52.346;13.096;2023-03-03T07:09:25;33.33;;;12.53;;
2618;SDS011;1319;52.346;13.096;2023-03-03T07:11:51;37.17;;;12.90;;
2618;SDS011;1319;52.346;13.096;2023-03-03T07:14:17;40.90;;;13.33;;
2618;SDS011;1319;52.346;13.096;2023-03-03T07:16:43;34.53;;;12.93;;
2618;SDS011;1319;52.346;13.096;2023-03-03T07:19:14;35.97;;;14.13;;
2618;SDS011;1319;52.346;13.096;2023-03-03T07:21:40;31.87;;;12.60;;
2618;SDS011;1319;52.346;13.096;2023-03-03T07:26:40;37.83;;;14.80;;
2618;SDS011;1319;52.346;13.096;2023-03-03T07:29:22;37.60;;;13.20;;
2618;SDS011;1319;52.346;13.096;2023-03-03T07:31:49;36.63;;;14.17;;
2618;SDS011;1319;52.346;13.096;2023-03-03T07:34:35;33.47;;;13.73;;
2618;SDS011;1319;52.346;13.096;2023-03-03T07:37:03;34.93;;;12.83;;
2618;SDS011;1319;52.346;13.096;2023-03-03T07:42:14;32.07;;;12.03;;
2618;SDS011;1319;52.346;13.096;2023-03-03T07:44:41;31.93;;;13.20;;
2618;SDS011;1319;52.346;13.096;2023-03-03T07:47:21;32.83;;;11.97;;
2618;SDS011;1319;52.346;13.096;2023-03-03T07:49:47;27.33;;;10.83;;
2618;SDS011;1319;52.346;13.096;2023-03-03T07:52:19;24.27;;;10.63;;
2618;SDS011;1319;52.346;13.096;2023-03-03T07:54:45;21.90;;;10.37;;
2618;SDS011;1319;52.346;13.096;2023-03-03T07:57:18;31.27;;;11.57;;
2618;SDS011;1319;52.346;13.096;2023-03-03T07:59:48;26.43;;;11.10;;
2618;SDS011;1319;52.346;13.096;2023-03-03T08:02:33;26.53;;;11.50;;
2618;SDS011;1319;52.346;13.096;2023-03-03T08:05:00;28.90;;;11.63;;
2618;SDS011;1319;52.346;13.096;2023-03-03T08:07:27;29.23;;;11.83;;
2618;SDS011;1319;52.346;13.096;2023-03-03T08:09:58;26.30;;;11.50;;
2618;SDS011;1319;52.346;13.096;2023-03-03T08:14:51;25.80;;;11.97;;
2618;SDS011;1319;52.346;13.096;2023-03-03T08:17:24;30.00;;;11.93;;
2618;SDS011;1319;52.346;13.096;2023-03-03T08:19:52;27.07;;;11.40;;
2618;SDS011;1319;52.346;13.096;2023-03-03T08:24:50;32.03;;;12.13;;
2618;SDS011;1319;52.346;13.096;2023-03-03T08:27:15;28.33;;;11.37;;
2618;SDS011;1319;52.346;13.096;2023-03-03T08:29:40;22.93;;;10.63;;
2618;SDS011;1319;52.346;13.096;2023-03-03T08:32:06;25.33;;;10.90;;
2618;SDS011;1319;52.346;13.096;2023-03-03T08:34:31;23.80;;;10.63;;
2618;SDS011;1319;52.346;13.096;2023-03-03T08:36:56;29.00;;;11.63;;
2618;SDS011;1319;52.346;13.096;2023-03-03T08:39:22;26.50;;;11.13;;
2618;SDS011;1319;52.346;13.096;2023-03-03T08:41:48;21.27;;;10.50;;
2618;SDS011;1319;52.346;13.096;2023-03-03T08:44:13;24.67;;;11.10;;
2618;SDS011;1319;52.346;13.096;2023-03-03T08:46:38;24.93;;;10.47;;
2618;SDS011;1319;52.346;13.096;2023-03-03T08:49:03;23.80;;;10.70;;
2618;SDS011;1319;52.346;13.096;2023-03-03T08:51:28;22.83;;;9.80;;
2618;SDS011;1319;52.346;13.096;2023-03-03T08:53:54;25.17;;;10.53;;
2618;SDS011;1319;52.346;13.096;2023-03-03T08:56:19;24.53;;;10.43;;
2618;SDS011;1319;52.346;13.096;2023-03-03T08:58:44;28.13;;;10.80;;
2618;SDS011;1319;52.346;13.096;2023-03-03T09:01:12;27.57;;;11.37;;
2618;SDS011;1319;52.346;13.096;2023-03-03T09:03:37;25.37;;;10.63;;
2618;SDS011;1319;52.346;13.096;2023-03-03T09:06:03;24.60;;;10.27;;
2618;SDS011;1319;52.346;13.096;2023-03-03T09:08:28;27.53;;;10.43;;
2618;SDS011;1319;52.346;13.096;2023-03-03T09:10:53;25.13;;;10.57;;
2618;SDS011;1319;52.346;13.096;2023-03-03T09:13:18;27.37;;;10.73;;
2618;SDS011;1319;52.346;13.096;2023-03-03T09:15:44;27.47;;;10.80;;
2618;SDS011;1319;52.346;13.096;2023-03-03T09:20:36;27.17;;;11.40;;
2618;SDS011;1319;52.346;13.096;2023-03-03T09:25:42;26.03;;;11.50;;
2618;SDS011;1319;52.346;13.096;2023-03-03T09:28:24;27.33;;;11.30;;
2618;SDS011;1319;52.346;13.096;2023-03-03T09:30:50;25.50;;;10.13;;
2618;SDS011;1319;52.346;13.096;2023-03-03T09:33:18;24.20;;;9.47;;
2618;SDS011;1319;52.346;13.096;2023-03-03T09:35:46;21.53;;;10.40;;
2618;SDS011;1319;52.346;13.096;2023-03-03T09:38:24;26.00;;;9.53;;
2618;SDS011;1319;52.346;13.096;2023-03-03T09:40:54;24.03;;;10.43;;
2618;SDS011;1319;52.346;13.096;2023-03-03T09:46:07;21.70;;;9.30;;
2618;SDS011;1319;52.346;13.096;2023-03-03T09:48:50;21.07;;;9.00;;
2618;SDS011;1319;52.346;13.096;2023-03-03T09:56:13;21.30;;;9.53;;
2618;SDS011;1319;52.346;13.096;2023-03-03T10:08:38;25.67;;;10.60;;
2618;SDS011;1319;52.346;13.096;2023-03-03T10:19:02;35.43;;;12.43;;
2618;SDS011;1319;52.346;13.096;2023-03-03T10:21:55;29.97;;;12.60;;
2618;SDS011;1319;52.346;13.096;2023-03-03T10:24:28;24.80;;;10.93;;
2618;SDS011;1319;52.346;13.096;2023-03-03T10:29:27;29.37;;;12.03;;
2618;SDS011;1319;52.346;13.096;2023-03-03T10:37:16;26.63;;;10.50;;
2618;SDS011;1319;52.346;13.096;2023-03-03T10:45:09;27.40;;;10.63;;
2618;SDS011;1319;52.346;13.096;2023-03-03T10:55:24;26.63;;;11.83;;
2618;SDS011;1319;52.346;13.096;2023-03-03T11:00:40;24.33;;;10.60;;
2618;SDS011;1319;52.346;13.096;2023-03-03T11:13:34;28.73;;;11.97;;
2618;SDS011;1319;52.346;13.096;2023-03-03T11:18:31;23.87;;;10.57;;
2618;SDS011;1319;52.346;13.096;2023-03-03T11:36:54;33.57;;;14.00;;
2618;SDS011;1319;52.346;13.096;2023-03-03T11:39:22;39.80;;;14.20;;
2618;SDS011;1319;52.346;13.096;2023-03-03T11:44:32;29.67;;;12.17;;
2618;SDS011;1319;52.346;13.096;2023-03-03T11:47:04;31.67;;;13.77;;
2618;SDS011;1319;52.346;13.096;2023-03-03T11:52:09;38.57;;;14.67;;
2618;SDS011;1319;52.346;13.096;2023-03-03T11:58:06;34.93;;;14.50;;
2618;SDS011;1319;52.346;13.096;2023-03-03T12:00:00;29.70;;;13.73;;
2618;SDS011;1319;52.346;13.096;2023-03-03T12:02:40;33.63;;;13.97;;
2618;SDS011;1319;52.346;13.096;2023-03-03T12:05:11;39.60;;;15.63;;
2618;SDS011;1319;52.346;13.096;2023-03-03T12:07:52;36.93;;;15.27;;
2618;SDS011;1319;52.346;13.096;2023-03-03T12:10:23;30.70;;;14.17;;
2618;SDS011;1319;52.346;13.096;2023-03-03T12:15:51;32.47;;;14.13;;
2618;SDS011;1319;52.346;13.096;2023-03-03T12:23:35;35.67;;;14.23;;
2618;SDS011;1319;52.346;13.096;2023-03-03T12:26:11;34.83;;;14.87;;
2618;SDS011;1319;52.346;13.096;2023-03-03T12:28:41;31.93;;;14.00;;
2618;SDS011;1319;52.346;13.096;2023-03-03T12:33:54;31.17;;;13.47;;
2618;SDS011;1319;52.346;13.096;2023-03-03T12:38:56;33.10;;;14.03;;
2618;SDS011;1319;52.346;13.096;2023-03-03T12:41:48;30.20;;;13.97;;
2618;SDS011;1319;52.346;13.096;2023-03-03T12:44:14;31.90;;;14.27;;
2618;SDS011;1319;52.346;13.096;2023-03-03T12:54:52;29.37;;;13.90;;
2618;SDS011;1319;52.346;13.096;2023-03-03T13:10:07;31.53;;;14.60;;
2618;SDS011;1319;52.346;13.096;2023-03-03T13:12:38;30.87;;;14.17;;
2618;SDS011;1319;52.346;13.096;2023-03-03T13:17:37;26.63;;;13.07;;
2618;SDS011;1319;52.346;13.096;2023-03-03T13:25:09;25.60;;;12.93;;
2618;SDS011;1319;52.346;13.096;2023-03-03T13:27:41;24.07;;;12.17;;
2618;SDS011;1319;52.346;13.096;2023-03-03T13:35:36;28.53;;;13.10;;
2618;SDS011;1319;52.346;13.096;2023-03-03T13:38:03;26.63;;;12.53;;
2618;SDS011;1319;52.346;13.096;2023-03-03T13:43:23;26.53;;;12.30;;
2618;SDS011;1319;52.346;13.096;2023-03-03T14:06:44;30.30;;;15.53;;
2618;SDS011;1319;52.346;13.096;2023-03-03T14:22:05;35.53;;;17.13;;
2618;SDS011;1319;52.346;13.096;2023-03-03T14:24:30;35.63;;;17.27;;
2618;SDS011;1319;52.346;13.096;2023-03-03T14:26:56;35.43;;;17.40;;
2618;SDS011;1319;52.346;13.096;2023-03-03T14:31:51;33.17;;;16.13;;
2618;SDS011;1319;52.346;13.096;2023-03-03T14:36:48;29.20;;;14.87;;
2618;SDS011;1319;52.346;13.096;2023-03-03T14:39:35;29.07;;;14.67;;
2618;SDS011;1319;52.346;13.096;2023-03-03T14:44:52;25.87;;;13.50;;
2618;SDS011;1319;52.346;13.096;2023-03-03T14:47:22;23.80;;;13.30;;
2618;SDS011;1319;52.346;13.096;2023-03-03T14:49:48;26.57;;;13.17;;
2618;SDS011;1319;52.346;13.096;2023-03-03T14:54:38;23.30;;;12.50;;
2618;SDS011;1319;52.346;13.096;2023-03-03T14:57:08;23.07;;;12.77;;
2618;SDS011;1319;52.346;13.096;2023-03-03T14:59:36;22.27;;;12.00;;
2618;SDS011;1319;52.346;13.096;2023-03-03T15:04:42;24.30;;;12.67;;
2618;SDS011;1319;52.346;13.096;2023-03-03T15:09:52;20.93;;;12.07;;
2618;SDS011;1319;52.346;13.096;2023-03-03T15:12:18;20.23;;;11.40;;
2618;SDS011;1319;52.346;13.096;2023-03-03T15:14:45;23.03;;;12.00;;
2618;SDS011;1319;52.346;13.096;2023-03-03T15:19:58;21.47;;;11.93;;
2618;SDS011;1319;52.346;13.096;2023-03-03T15:24:57;23.67;;;12.17;;
2618;SDS011;1319;52.346;13.096;2023-03-03T15:27:35;20.77;;;11.50;;
2618;SDS011;1319;52.346;13.096;2023-03-03T15:35:04;20.83;;;11.87;;
2618;SDS011;1319;52.346;13.096;2023-03-03T15:37:44;21.87;;;11.83;;
2618;SDS011;1319;52.346;13.096;2023-03-03T15:52:55;23.77;;;12.43;;
2618;SDS011;1319;52.346;13.096;2023-03-03T16:03:00;21.73;;;11.67;;
2618;SDS011;1319;52.346;13.096;2023-03-03T16:05:33;18.47;;;10.53;;
2618;SDS011;1319;52.346;13.096;2023-03-03T16:08:09;23.10;;;12.10;;
2618;SDS011;1319;52.346;13.096;2023-03-03T16:10:38;23.17;;;11.50;;
2618;SDS011;1319;52.346;13.096;2023-03-03T16:20:51;21.93;;;11.37;;
2618;SDS011;1319;52.346;13.096;2023-03-03T16:31:10;21.60;;;11.63;;
2618;SDS011;1319;52.346;13.096;2023-03-03T16:33:52;22.80;;;11.23;;
2618;SDS011;1319;52.346;13.096;2023-03-03T16:36:31;27.07;;;12.20;;
2618;SDS011;1319;52.346;13.096;2023-03-03T16:39:05;24.53;;;11.43;;
2618;SDS011;1319;52.346;13.096;2023-03-03T16:41:46;25.30;;;11.83;;
2618;SDS011;1319;52.346;13.096;2023-03-03T16:44:59;25.03;;;11.57;;
2618;SDS011;1319;52.346;13.096;2023-03-03T16:47:06;25.40;;;12.40;;
2618;SDS011;1319;52.346;13.096;2023-03-03T16:49:36;21.00;;;11.13;;
2618;SDS011;1319;52.346;13.096;2023-03-03T16:52:06;24.47;;;12.67;;
2618;SDS011;1319;52.346;13.096;2023-03-03T16:54:38;26.00;;;12.43;;
2618;SDS011;1319;52.346;13.096;2023-03-03T17:02:06;25.70;;;12.53;;
2618;SDS011;1319;52.346;13.096;2023-03-03T17:04:52;26.63;;;12.33;;
2618;SDS011;1319;52.346;13.096;2023-03-03T17:09:57;24.33;;;13.13;;
2618;SDS011;1319;52.346;13.096;2023-03-03T17:12:39;27.47;;;13.50;;
2618;SDS011;1319;52.346;13.096;2023-03-03T17:17:42;30.73;;;14.47;;
2618;SDS011;1319;52.346;13.096;2023-03-03T17:23:07;31.77;;;14.53;;
2618;SDS011;1319;52.346;13.096;2023-03-03T17:25:41;32.63;;;15.10;;
2618;SDS011;1319;52.346;13.096;2023-03-03T17:28:13;33.37;;;15.33;;
2618;SDS011;1319;52.346;13.096;2023-03-03T17:33:29;30.37;;;15.03;;
2618;SDS011;1319;52.346;13.096;2023-03-03T17:46:07;31.70;;;14.63;;
2618;SDS011;1319;52.346;13.096;2023-03-03T17:48:47;35.00;;;15.37;;
2618;SDS011;1319;52.346;13.096;2023-03-03T17:51:22;27.93;;;14.33;;
2618;SDS011;1319;52.346;13.096;2023-03-03T18:04:10;33.53;;;14.63;;
2618;SDS011;1319;52.346;13.096;2023-03-03T18:17:15;31.37;;;15.47;;
2618;SDS011;1319;52.346;13.096;2023-03-03T18:24:53;31.63;;;14.37;;
2618;SDS011;1319;52.346;13.096;2023-03-03T18:30:13;31.80;;;15.73;;
2618;SDS011;1319;52.346;13.096;2023-03-03T18:35:19;32.00;;;15.73;;
2618;SDS011;1319;52.346;13.096;2023-03-03T18:37:45;30.40;;;14.80;;
2618;SDS011;1319;52.346;13.096;2023-03-03T18:42:40;32.07;;;14.40;;
2618;SDS011;1319;52.346;13.096;2023-03-03T18:47:57;30.97;;;15.30;;
2618;SDS011;1319;52.346;13.096;2023-03-03T18:50:37;32.03;;;13.57;;
2618;SDS011;1319;52.346;13.096;2023-03-03T18:53:19;33.00;;;14.30;;
2618;SDS011;1319;52.346;13.096;2023-03-03T18:55:46;33.43;;;14.60;;
2618;SDS011;1319;52.346;13.096;2023-03-03T19:00:40;29.70;;;13.90;;
2618;SDS011;1319;52.346;13.096;2023-03-03T19:03:07;28.40;;;13.70;;
2618;SDS011;1319;52.346;13.096;2023-03-03T19:05:47;32.73;;;13.90;;
2618;SDS011;1319;52.346;13.096;2023-03-03T19:08:17;29.73;;;14.13;;
2618;SDS011;1319;52.346;13.096;2023-03-03T19:15:56;30.07;;;14.70;;
2618;SDS011;1319;52.346;13.096;2023-03-03T19:18:23;32.40;;;14.17;;
2618;SDS011;1319;52.346;13.096;2023-03-03T19:23:17;28.03;;;13.73;;
2618;SDS011;1319;52.346;13.096;2023-03-03T19:25:44;34.10;;;14.60;;
2618;SDS011;1319;52.346;13.096;2023-03-03T19:56:53;36.57;;;15.50;;
2618;SDS011;1319;52.346;13.096;2023-03-03T20:04:30;35.50;;;15.73;;
2618;SDS011;1319;52.346;13.096;2023-03-03T20:10:32;37.93;;;15.73;;
2618;SDS011;1319;52.346;13.096;2023-03-03T20:17:43;40.30;;;16.27;;
2618;SDS011;1319;52.346;13.096;2023-03-03T20:25:36;37.93;;;15.33;;
2618;SDS011;1319;52.346;13.096;2023-03-03T20:36:16;29.97;;;14.80;;
2618;SDS011;1319;52.346;13.096;2023-03-03T20:38:50;35.70;;;15.17;;
2618;SDS011;1319;52.346;13.096;2023-03-03T20:43:58;29.20;;;14.83;;
2618;SDS011;1319;52.346;13.096;2023-03-03T20:46:30;28.47;;;13.93;;
2618;SDS011;1319;52.346;13.096;2023-03-03T20:49:07;30.90;;;13.60;;
2618;SDS011;1319;52.346;13.096;2023-03-03T20:51:50;28.07;;;13.20;;
2618;SDS011;1319;52.346;13.096;2023-03-03T21:02:04;30.70;;;14.20;;
2618;SDS011;1319;52.346;13.096;2023-03-03T21:04:34;32.63;;;14.37;;
2618;SDS011;1319;52.346;13.096;2023-03-03T21:07:00;35.90;;;14.57;;
2618;SDS011;1319;52.346;13.096;2023-03-03T21:09:30;34.03;;;15.87;;
2618;SDS011;1319;52.346;13.096;2023-03-03T21:11:56;35.03;;;15.27;;
2618;SDS011;1319;52.346;13.096;2023-03-03T21:14:32;34.43;;;15.20;;
2618;SDS011;1319;52.346;13.096;2023-03-03T21:16:58;32.23;;;14.63;;
2618;SDS011;1319;52.346;13.096;2023-03-03T21:19:33;40.97;;;15.90;;
2618;SDS011;1319;52.346;13.096;2023-03-03T21:22:00;36.40;;;16.50;;
2618;SDS011;1319;52.346;13.096;2023-03-03T21:24:45;40.77;;;17.77;;